Time;durP1;ratioP1;P1;durP2;ratioP2;P2;SDS_P1;SDS_P2;PMS_P1;PMS_P2;Temp;Humidity;BMP_temperature;BMP_pressure;BME280_temperature;BME280_humidity;BME280_pressure;Samples;Min_cycle;Max_cycle;Signal;HPM_P1;HPM_P2
2024/02/22 00:02:09;;;;;;;;;;;;;;;9.78;60.87;100193.19;4975360;28;20008;-87
2024/02/22 00:04:34;;;;;;;;;;;;;;;9.79;59.69;100194.84;4975497;28;20372;-87
2024/02/22 00:06:59;;;;;;;;;;;;;;;9.81;59.52;100190.22;4975329;28;19914;-87
2024/02/22 00:09:25;;;;;;;;;;;;;;;9.77;59.85;100183.63;4957900;28;19914;-87
2024/02/22 00:11:50;;;;;;;;;;;;;;;9.77;60.42;100184.44;4975502;28;20307;-88
2024/02/22 00:14:15;;;;;;;;;;;;;;;9.77;59.97;100178.34;4974619;28;19926;-87
2024/02/22 00:16:40;;;;;;;;;;;;;;;9.74;59.76;100171.56;4975096;28;19927;-88
2024/02/22 00:19:06;;;;;;;;;;;;;;;9.73;60.33;100172.56;4957707;28;19918;-88
2024/02/22 00:21:31;;;;;;;;;;;;;;;9.74;60.53;100178.66;4957447;28;20367;-88
2024/02/22 00:23:56;;;;;;;;;;;;;;;9.71;61.48;100171.88;4974728;28;19918;-88
2024/02/22 00:26:22;;;;;;;;;;;;;;;9.71;61.49;100165.78;4957651;28;20376;-87
2024/02/22 00:28:48;;;;;;;;;;;;;;;9.72;60.93;100178.00;4974881;28;19937;-88
2024/02/22 00:31:13;;;;;;;;;;;;;;;9.69;61.42;100167.75;4957574;28;20368;-88
2024/02/22 00:33:38;;;;;;;;;;;;;;;9.66;61.37;100171.53;4957516;28;20001;-88
2024/02/22 00:36:04;;;;;;;;;;;;;;;9.63;60.49;100168.34;4974831;28;20372;-88
2024/02/22 00:38:29;;;;;;;;;;;;;;;9.14;61.53;100099.53;4974757;28;19961;-88
2024/02/22 00:40:54;;;;;;;;;;;;;;;9.57;60.20;100168.00;4957217;28;19914;-88
2024/02/22 00:43:19;;;;;;;;;;;;;;;9.53;60.67;100169.28;4974693;28;19924;-88
2024/02/22 00:45:45;;;;;;;;;;;;;;;9.50;61.69;100164.31;4974581;28;20363;-88
2024/02/22 00:48:10;;;;;;;;;;;;;;;9.47;61.43;100164.63;4974535;28;20303;-88
2024/02/22 00:50:36;;;;;;;;;;;;;;;9.43;61.37;100160.66;4974397;28;19925;-88
2024/02/22 00:53:01;;;;;;;;;;;;;;;9.41;62.54;100167.06;4956804;28;19910;-88
2024/02/22 00:55:26;;;;;;;;;;;;;;;9.43;61.22;100173.00;4956881;28;19997;-88
2024/02/22 00:57:51;;;;;;;;;;;;;;;9.44;61.19;100170.22;4974249;28;19957;-88
2024/02/22 01:00:17;;;;;;;;;;;;;;;9.45;60.97;100169.25;4956900;28;20004;-88
2024/02/22 01:02:42;;;;;;;;;;;;;;;9.44;60.84;100164.13;4956670;28;20020;-88
2024/02/22 01:05:08;;;;;;;;;;;;;;;9.38;62.66;100165.56;4974334;28;19918;-89
2024/02/22 01:07:33;;;;;;;;;;;;;;;9.37;62.79;100163.09;4974368;28;19914;-88
2024/02/22 01:09:58;;;;;;;;;;;;;;;9.36;61.97;100166.72;4956926;28;19937;-88
2024/02/22 01:12:24;;;;;;;;;;;;;;;9.34;61.31;100166.03;4956956;28;19921;-88
2024/02/22 01:14:49;;;;;;;;;;;;;;;9.33;61.91;100157.31;4957018;28;20009;-88
2024/02/22 01:17:14;;;;;;;;;;;;;;;9.34;61.69;100163.41;4956980;28;19921;-89
2024/02/22 01:19:40;;;;;;;;;;;;;;;9.32;61.13;100153.00;4974343;28;20268;-88
2024/02/22 01:22:05;;;;;;;;;;;;;;;9.29;63.39;100160.41;4974363;28;20288;-88
2024/02/22 01:24:30;;;;;;;;;;;;;;;9.23;62.65;100152.13;4974075;28;19914;-88
2024/02/22 01:26:56;;;;;;;;;;;;;;;9.26;61.77;100150.19;4973009;28;19925;-88
2024/02/22 01:29:21;;;;;;;;;;;;;;;9.23;61.75;100149.50;4956769;28;19919;-89
2024/02/22 01:31:46;;;;;;;;;;;;;;;9.23;63.54;100146.03;4973863;28;19949;-89
2024/02/22 01:34:11;;;;;;;;;;;;;;;9.19;64.30;100137.63;4975891;28;20352;-88
2024/02/22 01:36:37;;;;;;;;;;;;;;;9.15;64.13;100138.91;4977438;28;19949;-88
2024/02/22 01:39:04;;;;;;;;;;;;;;;9.13;62.19;100140.03;4973820;28;19910;-88
2024/02/22 01:41:29;;;;;;;;;;;;;;;9.11;63.28;100132.28;4973572;28;19914;-89
2024/02/22 01:43:54;;;;;;;;;;;;;;;9.09;62.99;100134.25;4956154;28;19937;-89
2024/02/22 01:46:20;;;;;;;;;;;;;;;9.10;62.86;100135.09;4973746;28;19918;-88
2024/02/22 01:48:46;;;;;;;;;;;;;;;9.11;63.12;100131.47;4956203;28;19914;-89
2024/02/22 01:51:12;;;;;;;;;;;;;;;9.08;62.54;100124.69;4956169;28;20376;-88
2024/02/22 01:53:37;;;;;;;;;;;;;;;9.05;62.09;100125.00;4973450;28;19915;-88
2024/02/22 01:56:03;;;;;;;;;;;;;;;9.02;63.25;100122.69;4973474;28;19914;-88
2024/02/22 01:58:31;;;;;;;;;;;;;;;9.01;62.51;100112.31;4973143;28;19914;-88
2024/02/22 02:00:57;;;;;;;;;;;;;;;8.99;62.63;100109.00;4973011;28;19926;-88
2024/02/22 02:03:23;;;;;;;;;;;;;;;8.99;63.47;100116.91;4955778;28;19918;-89
2024/02/22 02:05:48;;;;;;;;;;;;;;;8.93;63.08;100109.59;4955892;28;19914;-89
2024/02/22 02:08:13;;;;;;;;;;;;;;;8.85;63.79;100108.53;4973376;28;19915;-88
2024/02/22 02:10:39;;;;;;;;;;;;;;;8.80;64.73;100102.06;4973348;28;19918;-88
2024/02/22 02:13:07;;;;;;;;;;;;;;;8.78;62.66;100104.88;4973286;28;19915;-88
2024/02/22 02:15:33;;;;;;;;;;;;;;;8.75;63.42;100099.06;4955577;28;20398;-88
2024/02/22 02:17:59;;;;;;;;;;;;;;;8.68;63.92;100098.03;4972899;28;19914;-89
2024/02/22 02:20:26;;;;;;;;;;;;;;;8.69;63.25;100097.88;4973260;28;20395;-89
2024/02/22 02:22:54;;;;;;;;;;;;;;;8.67;63.36;100091.94;4973102;28;19914;-89
2024/02/22 02:25:19;;;;;;;;;;;;;;;8.66;62.48;100098.19;4955552;28;20052;-89
2024/02/22 02:27:45;;;;;;;;;;;;;;;8.63;63.80;100095.03;4972726;28;20004;-88
2024/02/22 02:30:10;;;;;;;;;;;;;;;8.59;63.60;100090.06;4955495;28;19921;-88
2024/02/22 02:32:37;;;;;;;;;;;;;;;8.56;63.35;100087.75;4973003;28;20419;-89
2024/02/22 02:35:02;;;;;;;;;;;;;;;8.53;64.41;100087.22;4955760;28;19921;-88
2024/02/22 02:37:28;;;;;;;;;;;;;;;8.52;62.67;100085.56;4972465;28;19922;-88
2024/02/22 02:39:53;;;;;;;;;;;;;;;8.48;63.23;100078.94;4972935;28;19921;-89
2024/02/22 02:42:18;;;;;;;;;;;;;;;8.42;64.64;100088.28;4955723;28;19973;-88
2024/02/22 02:44:43;;;;;;;;;;;;;;;8.38;64.77;100089.56;4972825;28;19922;-88
2024/02/22 02:47:09;;;;;;;;;;;;;;;8.33;64.24;100090.94;4955483;28;19918;-88
2024/02/22 02:49:34;;;;;;;;;;;;;;;8.35;63.67;100086.41;4973045;28;19969;-88
2024/02/22 02:51:59;;;;;;;;;;;;;;;8.37;63.13;100097.59;4972822;28;19918;-89
2024/02/22 02:54:25;;;;;;;;;;;;;;;8.37;62.84;100090.53;4955432;28;20004;-88
2024/02/22 02:56:50;;;;;;;;;;;;;;;8.36;64.02;100091.50;4972598;28;20052;-89
2024/02/22 02:59:16;;;;;;;;;;;;;;;8.33;64.09;100090.94;4955250;28;20000;-89
2024/02/22 03:01:46;;;;;;;;;;;;;;;8.25;64.15;100091.69;4972704;28;19929;-88
2024/02/22 03:04:11;;;;;;;;;;;;;;;8.23;63.68;100094.47;4955329;28;20326;-89
2024/02/22 03:06:36;;;;;;;;;;;;;;;8.25;64.16;100089.91;4972805;28;20001;-88
2024/02/22 03:09:01;;;;;;;;;;;;;;;8.21;64.35;100091.19;4972562;28;20024;-89
2024/02/22 03:11:27;;;;;;;;;;;;;;;8.17;63.47;100088.97;4972757;28;19914;-88
2024/02/22 03:13:52;;;;;;;;;;;;;;;8.17;63.98;100094.22;4955755;28;19918;-88
2024/02/22 03:16:17;;;;;;;;;;;;;;;8.18;63.29;100095.91;4975664;28;20311;-88
2024/02/22 03:18:43;;;;;;;;;;;;;;;8.16;63.42;100101.28;4983242;28;20363;-89
2024/02/22 03:21:09;;;;;;;;;;;;;;;8.13;63.59;100109.47;4975003;28;19914;-88
2024/02/22 03:23:34;;;;;;;;;;;;;;;8.09;63.45;100105.47;4972135;28;20358;-88
2024/02/22 03:25:59;;;;;;;;;;;;;;;8.09;63.30;100110.75;4954997;28;19920;-88
2024/02/22 03:28:24;;;;;;;;;;;;;;;8.03;63.86;100108.72;4972109;28;19938;-89
2024/02/22 03:30:52;;;;;;;;;;;;;;;7.94;64.32;100105.16;4972630;28;20296;-89
2024/02/22 03:33:17;;;;;;;;;;;;;;;7.95;63.32;100108.63;4972209;28;20059;-89
2024/02/22 03:35:42;;;;;;;;;;;;;;;7.95;63.30;100109.44;4972294;28;19943;-88
2024/02/22 03:38:08;;;;;;;;;;;;;;;7.94;64.16;100110.41;4954901;28;19972;-88
2024/02/22 03:40:33;;;;;;;;;;;;;;;7.91;64.78;100110.72;4972346;28;19914;-88
2024/02/22 03:42:58;;;;;;;;;;;;;;;7.89;63.82;100114.47;4954871;28;19926;-88
2024/02/22 03:45:24;;;;;;;;;;;;;;;7.86;64.28;100112.97;4954958;28;19914;-89
2024/02/22 03:47:49;;;;;;;;;;;;;;;7.85;63.95;100115.72;4972172;28;19914;-89
2024/02/22 03:50:15;;;;;;;;;;;;;;;7.79;63.62;100117.16;4974727;28;20527;-89
2024/02/22 03:52:40;;;;;;;;;;;;;;;7.72;63.89;100115.25;4975573;28;19920;-88
2024/02/22 03:55:08;;;;;;;;;;;;;;;7.59;64.05;100124.28;4958158;28;19918;-89
2024/02/22 03:57:33;;;;;;;;;;;;;;;7.45;62.85;100124.75;4958285;28;20059;-89
2024/02/22 03:59:58;;;;;;;;;;;;;;;7.34;64.37;100124.91;4975478;28;20453;-88
2024/02/22 04:02:24;;;;;;;;;;;;;;;7.29;63.30;100122.72;4957941;28;20371;-89
2024/02/22 04:04:50;;;;;;;;;;;;;;;7.28;63.45;100125.47;4975450;28;19940;-89
2024/02/22 04:07:15;;;;;;;;;;;;;;;7.28;63.23;100122.84;4957921;28;20368;-89
2024/02/22 04:09:41;;;;;;;;;;;;;;;7.22;62.95;100124.25;4975414;28;19920;-89
2024/02/22 04:12:06;;;;;;;;;;;;;;;7.18;63.47;100127.31;4975340;28;20000;-89
2024/02/22 04:14:31;;;;;;;;;;;;;;;7.16;62.51;100124.81;4958027;28;20308;-88
2024/02/22 04:16:57;;;;;;;;;;;;;;;7.12;63.20;100130.50;4957862;28;19937;-88
2024/02/22 04:19:22;;;;;;;;;;;;;;;7.13;62.93;100114.59;4975172;28;19960;-89
2024/02/22 04:21:47;;;;;;;;;;;;;;;7.07;63.19;100119.59;4975159;28;19914;-89
2024/02/22 04:24:12;;;;;;;;;;;;;;;7.04;62.29;100125.13;4957675;28;20327;-89
2024/02/22 04:26:45;;;;;;;;;;;;;;;7.03;62.95;100120.84;4957661;28;19914;-89
2024/02/22 04:29:11;;;;;;;;;;;;;;;6.96;63.46;100123.19;4957624;28;19996;-89
2024/02/22 04:31:37;;;;;;;;;;;;;;;6.94;63.28;100123.34;4957555;28;19961;-89
2024/02/22 04:34:02;;;;;;;;;;;;;;;6.88;63.30;100126.53;4974925;28;19914;-89
2024/02/22 04:36:27;;;;;;;;;;;;;;;6.85;63.92;100124.19;4974684;28;19929;-89
2024/02/22 04:38:54;;;;;;;;;;;;;;;6.80;63.35;100118.53;4974988;28;19921;-89
2024/02/22 04:41:22;;;;;;;;;;;;;;;6.76;62.84;100121.56;4974835;28;19920;-89
2024/02/22 04:43:47;;;;;;;;;;;;;;;6.75;62.78;100119.91;4957303;28;19918;-89
2024/02/22 04:46:13;;;;;;;;;;;;;;;6.72;63.65;100120.19;4974786;28;19914;-89
2024/02/22 04:48:38;;;;;;;;;;;;;;;6.75;63.58;100122.53;4957282;28;19922;-89
2024/02/22 04:51:03;;;;;;;;;;;;;;;6.72;63.75;100120.19;4957165;28;19969;-89
2024/02/22 04:53:29;;;;;;;;;;;;;;;6.72;63.57;100126.28;4956883;28;20387;-89
2024/02/22 04:55:54;;;;;;;;;;;;;;;6.65;63.00;100127.75;4974254;28;19965;-89
2024/02/22 04:58:19;;;;;;;;;;;;;;;6.59;63.48;100128.31;4974315;28;19914;-89
2024/02/22 05:00:46;;;;;;;;;;;;;;;6.57;64.10;100125.00;4973984;28;19961;-89
2024/02/22 05:03:12;;;;;;;;;;;;;;;6.57;63.53;100122.38;4957138;28;19954;-89
2024/02/22 05:05:37;;;;;;;;;;;;;;;6.60;63.21;100125.56;4957197;28;20376;-88
2024/02/22 05:08:03;;;;;;;;;;;;;;;6.61;63.51;100131.63;4957129;28;20004;-89
2024/02/22 05:10:31;;;;;;;;;;;;;;;6.60;63.26;100127.34;4974375;28;19921;-90
2024/02/22 05:12:56;;;;;;;;;;;;;;;6.60;63.05;100132.59;4956836;28;20363;-89
2024/02/22 05:15:21;;;;;;;;;;;;;;;6.58;63.26;100127.47;4956705;28;19921;-89
2024/02/22 05:17:48;;;;;;;;;;;;;;;6.56;64.00;100139.91;4974173;28;19914;-89
2024/02/22 05:20:13;;;;;;;;;;;;;;;6.52;63.89;100135.06;4974124;28;19993;-90
2024/02/22 05:22:38;;;;;;;;;;;;;;;6.56;63.12;100141.72;4974201;28;20014;-89
2024/02/22 05:25:04;;;;;;;;;;;;;;;6.58;63.76;100135.34;4956748;28;19945;-89
2024/02/22 05:27:29;;;;;;;;;;;;;;;6.62;63.82;100133.28;4973989;28;19914;-88
2024/02/22 05:29:54;;;;;;;;;;;;;;;6.61;63.84;100132.47;4956583;28;19969;-89
2024/02/22 05:32:19;;;;;;;;;;;;;;;6.65;63.13;100136.47;4973866;28;19914;-91
2024/02/22 05:34:45;;;;;;;;;;;;;;;6.65;63.36;100143.50;4956654;28;19969;-91
2024/02/22 05:37:11;;;;;;;;;;;;;;;6.65;62.73;100146.97;4973971;28;19914;-89
2024/02/22 05:39:37;;;;;;;;;;;;;;;6.70;62.54;100149.19;4973861;28;20328;-89
2024/02/22 05:42:02;;;;;;;;;;;;;;;6.65;63.51;100152.19;4956556;28;19969;-89
2024/02/22 05:44:27;;;;;;;;;;;;;;;6.66;63.91;100155.66;4956362;28;19918;-89
2024/02/22 05:46:53;;;;;;;;;;;;;;;6.65;62.99;100146.97;4973430;28;19914;-89
2024/02/22 05:49:18;;;;;;;;;;;;;;;6.67;62.48;100138.94;4956163;28;19961;-89
2024/02/22 05:51:43;;;;;;;;;;;;;;;6.75;62.66;100141.75;4956277;28;19945;-89
2024/02/22 05:54:09;;;;;;;;;;;;;;;6.79;63.25;100145.75;4973587;28;19914;-89
2024/02/22 05:56:34;;;;;;;;;;;;;;;6.85;62.44;100144.34;4956076;28;19968;-89
2024/02/22 05:58:59;;;;;;;;;;;;;;;6.87;62.18;100156.38;4956098;28;19914;-88
2024/02/22 06:01:24;;;;;;;;;;;;;;;6.90;62.29;100156.09;4955722;28;20396;-90
2024/02/22 06:03:50;;;;;;;;;;;;;;;6.78;62.68;100154.59;4973200;28;19918;-91
2024/02/22 06:06:15;;;;;;;;;;;;;;;6.70;62.68;100157.06;4955783;28;19915;-90
2024/02/22 06:08:42;;;;;;;;;;;;;;;6.76;63.00;100158.31;4973243;28;19914;-90
2024/02/22 06:11:08;;;;;;;;;;;;;;;6.73;62.60;100163.84;4955781;28;19914;-90
2024/02/22 06:13:33;;;;;;;;;;;;;;;6.65;61.84;100159.25;4955523;28;20277;-91
2024/02/22 06:15:59;;;;;;;;;;;;;;;6.65;62.51;100167.13;4955870;28;20010;-91
2024/02/22 06:18:24;;;;;;;;;;;;;;;6.73;62.75;100169.91;4973336;28;20311;-91
2024/02/22 06:20:49;;;;;;;;;;;;;;;6.81;62.67;100161.34;4973191;28;19917;-90
2024/02/22 06:23:14;;;;;;;;;;;;;;;6.89;62.56;100178.06;4972935;28;20013;-89
2024/02/22 06:25:40;;;;;;;;;;;;;;;6.91;62.75;100164.78;4973000;28;19971;-90
2024/02/22 06:28:06;;;;;;;;;;;;;;;6.94;62.40;100167.16;4955742;28;19914;-91
2024/02/22 06:30:32;;;;;;;;;;;;;;;6.97;62.55;100175.56;4973429;28;19936;-90
2024/02/22 06:32:57;;;;;;;;;;;;;;;7.01;62.40;100168.25;4955842;28;19914;-90
2024/02/22 06:35:22;;;;;;;;;;;;;;;7.03;62.08;100165.47;4973021;28;20399;-90
2024/02/22 06:37:48;;;;;;;;;;;;;;;7.00;61.54;100161.34;4973082;28;19969;-89
2024/02/22 06:40:14;;;;;;;;;;;;;;;6.97;62.20;100165.06;4955633;28;19914;-89
2024/02/22 06:42:40;;;;;;;;;;;;;;;7.01;61.62;100168.25;4972679;28;19921;-90
2024/02/22 06:45:05;;;;;;;;;;;;;;;7.05;61.87;100168.78;4972709;28;19922;-89
2024/02/22 06:47:31;;;;;;;;;;;;;;;7.04;62.40;100169.75;4946382;28;19938;-89
2024/02/22 06:49:56;;;;;;;;;;;;;;;7.08;62.06;100166.72;4953329;28;20392;-90
2024/02/22 06:52:22;;;;;;;;;;;;;;;7.11;61.86;100169.06;4936325;29;19914;-89
2024/02/22 06:54:48;;;;;;;;;;;;;;;7.13;62.71;100169.75;4936323;29;19970;-89
2024/02/22 06:57:13;;;;;;;;;;;;;;;7.19;61.86;100170.97;4936113;29;19915;-88
2024/02/22 06:59:39;;;;;;;;;;;;;;;7.26;61.88;100172.06;4953456;28;19965;-89
2024/02/22 07:02:05;;;;;;;;;;;;;;;7.29;61.94;100169.16;4951317;28;20000;-88
2024/02/22 07:04:30;;;;;;;;;;;;;;;7.36;61.69;100167.63;4967822;28;19951;-89
2024/02/22 07:06:57;;;;;;;;;;;;;;;7.41;61.90;100165.41;4971632;28;20564;-89
2024/02/22 07:09:22;;;;;;;;;;;;;;;7.45;61.83;100166.81;4942335;28;20453;-89
2024/02/22 07:11:48;;;;;;;;;;;;;;;7.50;61.98;100169.81;4966657;28;19922;-89
2024/02/22 07:14:13;;;;;;;;;;;;;;;7.58;61.95;100158.59;4955596;28;19914;-89
2024/02/22 07:16:40;;;;;;;;;;;;;;;7.68;62.46;100162.03;4955092;28;19918;-89
2024/02/22 07:19:06;;;;;;;;;;;;;;;7.73;62.26;100159.78;4955132;28;19973;-89
2024/02/22 07:21:35;;;;;;;;;;;;;;;7.82;62.46;100153.66;4955146;28;20418;-89
2024/02/22 07:24:03;;;;;;;;;;;;;;;7.88;62.57;100155.69;4957193;28;19918;-89
2024/02/22 07:26:29;;;;;;;;;;;;;;;7.91;61.87;100147.53;4976295;28;20315;-89
2024/02/22 07:28:54;;;;;;;;;;;;;;;7.96;62.00;100147.91;4958906;28;20406;-89
2024/02/22 07:31:19;;;;;;;;;;;;;;;8.01;62.56;100136.13;4960780;28;20009;-88
2024/02/22 07:33:45;;;;;;;;;;;;;;;8.07;62.53;100139.00;4953049;28;20331;-89
2024/02/22 07:36:10;;;;;;;;;;;;;;;8.13;62.85;100146.28;4959379;28;19956;-89
2024/02/22 07:38:36;;;;;;;;;;;;;;;8.22;62.60;100145.44;4976743;28;19914;-89
2024/02/22 07:41:05;;;;;;;;;;;;;;;8.35;61.90;100144.28;4959030;28;19925;-89
2024/02/22 07:43:30;;;;;;;;;;;;;;;8.44;62.31;100140.75;4976531;28;19973;-88
2024/02/22 07:45:56;;;;;;;;;;;;;;;8.52;62.43;100143.47;4975765;28;19918;-89
2024/02/22 07:48:21;;;;;;;;;;;;;;;8.60;61.58;100141.72;4970831;28;19965;-88
2024/02/22 07:50:47;;;;;;;;;;;;;;;8.66;62.25;100140.31;4939134;28;19919;-88
2024/02/22 07:53:12;;;;;;;;;;;;;;;8.71;62.71;100143.31;4956321;28;19986;-90
2024/02/22 07:55:38;;;;;;;;;;;;;;;8.77;62.81;100137.44;4948141;28;19924;-89
2024/02/22 07:58:03;;;;;;;;;;;;;;;8.82;62.07;100134.34;4975918;28;20387;-88
2024/02/22 08:00:29;;;;;;;;;;;;;;;8.88;62.43;100137.19;4967249;28;19969;-89
2024/02/22 08:02:54;;;;;;;;;;;;;;;9.00;62.39;100134.34;4948472;28;19929;-89
2024/02/22 08:05:19;;;;;;;;;;;;;;;9.09;61.20;100128.16;4975649;28;19925;-89
2024/02/22 08:07:44;;;;;;;;;;;;;;;9.17;61.94;100130.84;4958291;28;20323;-89
2024/02/22 08:10:10;;;;;;;;;;;;;;;9.24;62.33;100126.63;4956297;28;19918;-89
2024/02/22 08:12:35;;;;;;;;;;;;;;;9.32;61.70;100124.03;4957750;28;20020;-89
2024/02/22 08:15:04;;;;;;;;;;;;;;;9.43;61.64;100126.41;4957715;28;19922;-88
2024/02/22 08:17:31;;;;;;;;;;;;;;;9.53;60.36;100121.84;4957847;28;19914;-90
2024/02/22 08:19:56;;;;;;;;;;;;;;;9.62;59.88;100116.59;4975673;28;19997;-89
2024/02/22 08:22:22;;;;;;;;;;;;;;;9.71;60.91;100110.41;4957651;28;20435;-90
2024/02/22 08:24:47;;;;;;;;;;;;;;;9.81;61.22;100108.47;4957471;28;20418;-90
2024/02/22 08:27:12;;;;;;;;;;;;;;;9.99;59.36;100111.00;4975107;28;19918;-89
2024/02/22 08:29:37;;;;;;;;;;;;;;;10.06;60.55;100112.00;4973551;28;19926;-89
2024/02/22 08:32:04;;;;;;;;;;;;;;;10.18;59.54;100110.72;4975037;28;20384;-89
2024/02/22 08:34:30;;;;;;;;;;;;;;;10.29;59.60;100106.97;4974144;28;19924;-89
2024/02/22 08:36:55;;;;;;;;;;;;;;;10.39;59.79;100105.84;4957559;28;20381;-88
2024/02/22 08:39:21;;;;;;;;;;;;;;;10.52;58.65;100102.75;4974741;28;19914;-88
2024/02/22 08:41:46;;;;;;;;;;;;;;;10.60;58.21;100100.13;4940566;28;20388;-89
2024/02/22 08:44:11;;;;;;;;;;;;;;;10.66;59.19;100109.19;4955174;28;19922;-88
2024/02/22 08:46:36;;;;;;;;;;;;;;;10.72;59.97;100092.69;4938093;28;19926;-88
2024/02/22 08:49:02;;;;;;;;;;;;;;;10.81;58.47;100092.53;4959139;28;20303;-89
2024/02/22 08:51:27;;;;;;;;;;;;;;;10.90;58.94;100093.34;4947885;28;20009;-87
2024/02/22 08:53:52;;;;;;;;;;;;;;;11.02;57.67;100089.38;4967180;28;19922;-88
2024/02/22 08:56:18;;;;;;;;;;;;;;;11.14;57.47;100093.31;4951807;28;20347;-89
2024/02/22 08:58:43;;;;;;;;;;;;;;;11.13;57.90;100093.47;4971635;28;20326;-89
2024/02/22 09:01:08;;;;;;;;;;;;;;;11.21;57.99;100082.09;4974205;28;20390;-89
2024/02/22 09:03:34;;;;;;;;;;;;;;;11.29;57.27;100095.28;4972410;28;19922;-88
2024/02/22 09:05:59;;;;;;;;;;;;;;;11.37;56.94;100096.09;4952709;28;19922;-88
2024/02/22 09:08:25;;;;;;;;;;;;;;;11.46;57.36;100095.06;4937520;29;19918;-88
2024/02/22 09:10:51;;;;;;;;;;;;;;;11.53;57.32;100095.22;4960348;28;19941;-87
2024/02/22 09:13:17;;;;;;;;;;;;;;;11.60;56.83;100093.53;4956775;28;19925;-88
2024/02/22 09:15:49;;;;;;;;;;;;;;;11.63;56.80;100089.72;4972435;28;20085;-88
2024/02/22 09:18:14;;;;;;;;;;;;;;;11.73;56.82;100087.69;4973794;28;20000;-88
2024/02/22 09:20:39;;;;;;;;;;;;;;;11.74;56.26;100079.59;4954403;28;19950;-88
2024/02/22 09:23:05;;;;;;;;;;;;;;;11.86;55.90;100082.69;4952886;28;19921;-87
2024/02/22 09:25:30;;;;;;;;;;;;;;;11.96;55.49;100088.63;4973597;28;19918;-88
2024/02/22 09:27:55;;;;;;;;;;;;;;;11.91;55.29;100085.69;4973726;28;19915;-87
2024/02/22 09:30:20;;;;;;;;;;;;;;;11.99;55.39;100085.63;4961196;28;20414;-87
2024/02/22 09:32:46;;;;;;;;;;;;;;;12.07;55.13;100077.66;4965521;28;19960;-87
2024/02/22 09:35:11;;;;;;;;;;;;;;;12.19;54.88;100079.91;4972033;28;19918;-87
2024/02/22 09:37:36;;;;;;;;;;;;;;;12.27;55.00;100075.38;4973484;28;19918;-86
2024/02/22 09:40:02;;;;;;;;;;;;;;;12.37;54.05;100073.31;4939148;28;19977;-87
2024/02/22 09:42:27;;;;;;;;;;;;;;;12.46;54.11;100073.25;4954069;28;19914;-87
2024/02/22 09:44:53;;;;;;;;;;;;;;;12.54;53.98;100070.53;4953913;28;19922;-88
2024/02/22 09:47:19;;;;;;;;;;;;;;;12.63;53.97;100066.81;4941850;28;20013;-87
2024/02/22 09:49:44;;;;;;;;;;;;;;;12.69;54.28;100058.19;4973390;28;20000;-87
2024/02/22 09:52:11;;;;;;;;;;;;;;;12.77;53.17;100055.47;4967100;28;19922;-86
2024/02/22 09:54:36;;;;;;;;;;;;;;;12.88;53.43;100051.56;4962624;28;19930;-87
2024/02/22 09:57:02;;;;;;;;;;;;;;;13.00;53.59;100044.81;4943505;28;19919;-86
2024/02/22 09:59:27;;;;;;;;;;;;;;;13.15;52.86;100050.94;4962584;28;19918;-87
2024/02/22 10:01:56;;;;;;;;;;;;;;;13.14;52.74;100044.00;4953572;28;20005;-86
2024/02/22 10:04:23;;;;;;;;;;;;;;;13.20;52.58;100037.19;4953434;28;20297;-87
2024/02/22 10:06:48;;;;;;;;;;;;;;;13.22;52.27;100035.97;4936658;28;20380;-86
2024/02/22 10:09:16;;;;;;;;;;;;;;;13.29;52.14;100028.94;4959023;28;19925;-86
2024/02/22 10:11:45;;;;;;;;;;;;;;;13.36;52.18;100032.50;4973074;28;19965;-86
2024/02/22 10:14:11;;;;;;;;;;;;;;;13.43;51.81;100023.84;4968694;28;19976;-86
2024/02/22 10:16:38;;;;;;;;;;;;;;;13.52;51.93;100017.44;4937648;28;19961;-86
2024/02/22 10:19:03;;;;;;;;;;;;;;;13.65;51.40;100012.28;4951977;28;19918;-86
2024/02/22 10:21:30;;;;;;;;;;;;;;;13.69;51.04;100008.25;4953932;28;20460;-86
2024/02/22 10:23:56;;;;;;;;;;;;;;;13.89;51.41;100003.97;4963240;28;19928;-85
2024/02/22 10:26:22;;;;;;;;;;;;;;;14.11;50.87;99999.50;4947313;28;19918;-85
2024/02/22 10:28:54;;;;;;;;;;;;;;;14.20;50.11;99993.06;4972638;28;20319;-86
2024/02/22 10:31:19;;;;;;;;;;;;;;;14.26;50.20;99992.31;4946355;28;19918;-85
2024/02/22 10:33:45;;;;;;;;;;;;;;;14.23;49.80;99984.72;4954445;28;19929;-86
2024/02/22 10:36:11;;;;;;;;;;;;;;;14.38;49.63;99976.69;4935789;28;19915;-86
2024/02/22 10:38:38;;;;;;;;;;;;;;;14.51;49.58;99987.44;4935865;28;20005;-86
2024/02/22 10:41:03;;;;;;;;;;;;;;;14.49;49.35;99976.19;4965912;28;19918;-85
2024/02/22 10:43:29;;;;;;;;;;;;;;;14.55;49.16;99970.09;4955030;28;19930;-85
2024/02/22 10:45:57;;;;;;;;;;;;;;;14.61;48.62;99961.34;4953042;28;19938;-85
2024/02/22 10:48:23;;;;;;;;;;;;;;;14.71;48.72;99958.34;4937192;28;19915;-85
2024/02/22 10:50:48;;;;;;;;;;;;;;;14.79;48.56;99952.88;4960042;28;19926;-85
2024/02/22 10:53:15;;;;;;;;;;;;;;;14.92;48.92;99947.66;4962683;28;20009;-85
2024/02/22 10:55:44;;;;;;;;;;;;;;;15.00;47.87;99937.88;4962977;28;20391;-85
2024/02/22 10:58:10;;;;;;;;;;;;;;;15.10;48.39;99933.03;4936868;28;20061;-85
2024/02/22 11:00:35;;;;;;;;;;;;;;;15.10;47.32;99938.34;4958331;28;20403;-86
2024/02/22 11:03:01;;;;;;;;;;;;;;;15.18;47.58;99922.22;4942671;28;19922;-85
2024/02/22 11:05:37;;;;;;;;;;;;;;;15.24;47.33;99916.94;4968660;28;20363;-85
2024/02/22 11:08:03;;;;;;;;;;;;;;;15.33;47.46;99916.75;4969355;28;19929;-85
2024/02/22 11:10:28;;;;;;;;;;;;;;;15.38;47.33;99912.47;4973245;28;19922;-85
2024/02/22 11:12:54;;;;;;;;;;;;;;;15.42;47.24;99911.03;4944820;28;20363;-85
2024/02/22 11:15:25;;;;;;;;;;;;;;;15.45;47.08;99909.81;4966920;28;19914;-85
2024/02/22 11:17:55;;;;;;;;;;;;;;;15.39;46.50;99900.81;4939828;28;19923;-85
2024/02/22 11:20:33;;;;;;;;;;;;;;;15.44;45.28;99892.22;4966751;28;19925;-85
2024/02/22 11:23:10;;;;;;;;;;;;;;;15.46;45.21;99877.69;4975874;28;19914;-85
2024/02/22 11:25:35;;;;;;;;;;;;;;;15.57;46.42;99884.25;4958488;28;20331;-86
2024/02/22 11:28:00;;;;;;;;;;;;;;;15.57;45.90;99882.44;4962859;28;20014;-84
2024/02/22 11:30:26;;;;;;;;;;;;;;;15.54;46.03;99882.00;4942341;28;19923;-85
2024/02/22 11:32:52;;;;;;;;;;;;;;;15.47;44.43;99870.53;4956411;28;20009;-85
2024/02/22 11:35:19;;;;;;;;;;;;;;;15.48;44.20;99877.50;4946779;28;20445;-85
2024/02/22 11:37:44;;;;;;;;;;;;;;;15.51;44.90;99869.09;4958412;28;19914;-85
2024/02/22 11:40:09;;;;;;;;;;;;;;;15.56;44.56;99861.34;4938997;28;19922;-84
2024/02/22 11:42:35;;;;;;;;;;;;;;;15.58;44.61;99862.81;4955041;28;20002;-85
2024/02/22 11:45:10;;;;;;;;;;;;;;;15.58;42.56;99854.00;4955475;28;19994;-85
2024/02/22 11:47:36;;;;;;;;;;;;;;;15.53;44.03;99848.44;4956078;28;19925;-84
2024/02/22 11:50:02;;;;;;;;;;;;;;;15.47;43.87;99849.25;4956196;28;19914;-85
2024/02/22 11:52:27;;;;;;;;;;;;;;;15.42;42.18;99844.53;4945930;28;19919;-85
2024/02/22 11:54:52;;;;;;;;;;;;;;;15.40;40.12;99843.09;4957417;28;19977;-84
2024/02/22 11:57:17;;;;;;;;;;;;;;;14.81;40.70;99745.34;4956179;28;20327;-85
2024/02/22 11:59:43;;;;;;;;;;;;;;;15.38;43.40;99829.16;4956006;28;19914;-84
2024/02/22 12:02:09;;;;;;;;;;;;;;;15.30;40.36;99834.69;4939882;28;19976;-85
2024/02/22 12:04:34;;;;;;;;;;;;;;;15.29;41.99;99822.41;4938659;28;20135;-85
2024/02/22 12:07:03;;;;;;;;;;;;;;;15.25;43.15;99814.00;4938600;28;20352;-85
2024/02/22 12:09:29;;;;;;;;;;;;;;;15.18;41.95;99816.66;4937500;29;19954;-85
2024/02/22 12:11:54;;;;;;;;;;;;;;;15.09;39.25;99819.69;4944410;28;20020;-85
2024/02/22 12:14:20;;;;;;;;;;;;;;;15.05;40.87;99821.94;4954470;28;19925;-84
2024/02/22 12:16:46;;;;;;;;;;;;;;;14.98;40.32;99817.63;4970548;28;19954;-85
2024/02/22 12:19:14;;;;;;;;;;;;;;;14.96;40.88;99811.66;4955972;28;20400;-84
2024/02/22 12:21:40;;;;;;;;;;;;;;;14.96;40.35;99819.66;4974975;28;19922;-85
2024/02/22 12:24:06;;;;;;;;;;;;;;;14.92;41.79;99811.25;4940353;28;20005;-85
2024/02/22 12:26:31;;;;;;;;;;;;;;;14.87;42.19;99803.88;4941031;28;20006;-85
2024/02/22 12:28:57;;;;;;;;;;;;;;;14.86;42.08;99796.91;4955665;28;20005;-85
2024/02/22 12:31:24;;;;;;;;;;;;;;;14.87;42.50;99795.09;4955525;28;19921;-85
2024/02/22 12:33:50;;;;;;;;;;;;;;;14.90;42.56;99792.03;4955720;28;19969;-84
2024/02/22 12:36:16;;;;;;;;;;;;;;;14.92;41.16;99797.97;4938280;28;19914;-84
2024/02/22 12:38:41;;;;;;;;;;;;;;;15.01;42.33;99794.09;4955674;28;19937;-85